Terminal Aerodrome Forecast
Issued by NWS Jackson, MS

Home | Current Version | Previous Version | Text Only | Print | Product List | Glossary On
Versions: 1 2 3 4 5 6 7 8 9 10 11 12 13 14 15 16
406
FTUS44 KMEG 300523
TAFTUP
TAF
KTUP 300523Z 3006/3106 VRB03KT P6SM SCT250
     FM300900 VRB03KT 3SM BR SCT250
      TEMPO 3010/3012 1/2SM FG VV002
     FM301400 25005KT P6SM SCT030 SCT250
     FM310000 VRB03KT P6SM SCT250=

USA.gov is the U.S. government's official web portal to all federal, state and local government web resources and services.